createdAt,value
2023-01-09T00:00:04.763Z,13.07
2023-01-09T00:02:33.753Z,12.27
2023-01-09T00:05:01.870Z,12.50
2023-01-09T00:07:30.322Z,10.68
2023-01-09T00:09:59.722Z,12.27
2023-01-09T00:12:28.381Z,10.02
2023-01-09T00:14:56.814Z,12.38
2023-01-09T00:17:28.336Z,11.35
2023-01-09T00:19:57.349Z,10.93
2023-01-09T00:22:25.699Z,9.68
2023-01-09T00:24:53.980Z,10.32
2023-01-09T00:27:22.044Z,11.65
2023-01-09T00:29:50.912Z,11.95
2023-01-09T00:32:20.922Z,9.27
2023-01-09T00:34:50.151Z,11.20
2023-01-09T00:37:18.469Z,11.18
2023-01-09T00:39:46.843Z,11.90
2023-01-09T00:42:27.056Z,10.60
2023-01-09T00:45:01.790Z,11.65
2023-01-09T00:47:40.659Z,9.38
2023-01-09T00:50:16.700Z,13.05
2023-01-09T00:52:46.661Z,9.63
2023-01-09T00:55:15.702Z,11.85
2023-01-09T00:57:44.824Z,12.52
2023-01-09T01:00:13.681Z,9.90
2023-01-09T01:02:42.138Z,11.20
2023-01-09T01:05:32.389Z,11.07
2023-01-09T01:08:00.917Z,8.73
2023-01-09T01:10:29.204Z,10.63
2023-01-09T01:12:57.998Z,11.93
2023-01-09T01:15:29.518Z,11.00
2023-01-09T01:17:58.239Z,11.50
2023-01-09T01:20:28.006Z,9.98
2023-01-09T01:22:56.273Z,11.85
2023-01-09T01:25:24.701Z,10.98
2023-01-09T01:27:53.507Z,10.43
2023-01-09T01:30:22.238Z,7.85
2023-01-09T01:32:50.662Z,7.60
2023-01-09T01:35:19.750Z,9.23
2023-01-09T01:37:49.908Z,10.85
2023-01-09T01:40:18.100Z,9.85
2023-01-09T01:42:51.838Z,11.48
2023-01-09T01:45:29.664Z,10.05
2023-01-09T01:48:07.108Z,10.93
2023-01-09T01:50:59.567Z,10.02
2023-01-09T01:53:55.941Z,10.10
2023-01-09T01:56:44.284Z,9.93
2023-01-09T01:59:31.726Z,9.02
2023-01-09T02:02:02.628Z,9.30
2023-01-09T02:04:35.942Z,9.13
2023-01-09T02:07:09.981Z,8.75
2023-01-09T02:09:42.103Z,10.52
2023-01-09T02:12:26.592Z,9.50
2023-01-09T02:15:13.783Z,9.13
2023-01-09T02:18:19.838Z,6.88
2023-01-09T02:21:13.413Z,8.30
2023-01-09T02:24:32.276Z,8.20
2023-01-09T02:28:03.567Z,9.07
2023-01-09T02:30:56.849Z,9.38
2023-01-09T02:33:49.438Z,8.80
2023-01-09T02:36:52.582Z,9.15
2023-01-09T02:39:43.238Z,9.40
2023-01-09T02:42:18.397Z,7.32
2023-01-09T02:44:47.146Z,9.75
2023-01-09T02:47:22.133Z,9.50
2023-01-09T02:49:56.739Z,9.65
2023-01-09T02:52:49.413Z,8.32
2023-01-09T02:55:54.083Z,7.53
2023-01-09T02:59:26.979Z,9.85
2023-01-09T03:02:44.668Z,8.43
2023-01-09T03:05:45.521Z,9.65
2023-01-09T03:08:23.647Z,8.10
2023-01-09T03:10:59.568Z,8.75
2023-01-09T03:13:34.590Z,9.48
2023-01-09T03:16:08.420Z,6.32
2023-01-09T03:18:39.041Z,8.43
2023-01-09T03:21:12.525Z,9.00
2023-01-09T03:24:13.210Z,8.55
2023-01-09T03:26:41.700Z,8.65
2023-01-09T03:29:10.713Z,8.43
2023-01-09T03:31:39.115Z,9.13
2023-01-09T03:34:07.476Z,8.60
2023-01-09T03:36:35.592Z,7.28
2023-01-09T03:39:03.783Z,6.80
2023-01-09T03:41:32.890Z,8.35
2023-01-09T03:44:00.859Z,8.65
2023-01-09T03:46:29.320Z,8.48
2023-01-09T03:48:58.379Z,8.40
2023-01-09T03:51:26.434Z,8.00
2023-01-09T03:53:54.948Z,7.47
2023-01-09T03:56:23.077Z,8.50
2023-01-09T03:58:53.243Z,7.45
2023-01-09T04:01:21.689Z,8.07
2023-01-09T04:03:50.323Z,7.43
2023-01-09T04:06:18.799Z,7.65
2023-01-09T04:08:47.168Z,7.40
2023-01-09T04:11:17.772Z,8.30
2023-01-09T04:13:45.956Z,7.43
2023-01-09T04:16:14.658Z,7.30
2023-01-09T04:18:43.261Z,7.35
2023-01-09T04:21:11.372Z,8.07
2023-01-09T04:23:39.536Z,6.97
2023-01-09T04:26:08.453Z,7.00
2023-01-09T04:28:36.869Z,6.30
2023-01-09T04:31:05.505Z,7.80
2023-01-09T04:33:33.711Z,6.70
2023-01-09T04:36:01.880Z,7.25
2023-01-09T04:38:30.392Z,7.32
2023-01-09T04:40:58.800Z,6.00
2023-01-09T04:43:27.397Z,6.22
2023-01-09T04:45:56.728Z,7.25
2023-01-09T04:48:25.685Z,7.05
2023-01-09T04:50:53.808Z,7.07
2023-01-09T04:53:23.335Z,6.10
2023-01-09T04:55:52.116Z,7.10
2023-01-09T04:58:21.989Z,6.40
2023-01-09T05:00:50.400Z,7.07
2023-01-09T05:03:19.030Z,6.47
2023-01-09T05:05:47.126Z,6.40
2023-01-09T05:08:15.449Z,5.53
2023-01-09T05:10:44.919Z,6.40
2023-01-09T05:13:13.193Z,7.30
2023-01-09T05:15:41.639Z,6.43
2023-01-09T05:18:10.152Z,6.65
2023-01-09T05:20:38.778Z,6.40
2023-01-09T05:23:07.611Z,7.13
2023-01-09T05:25:36.555Z,5.25
2023-01-09T05:28:05.496Z,7.18
2023-01-09T05:30:34.251Z,7.38
2023-01-09T05:33:02.887Z,7.72
2023-01-09T05:35:31.083Z,6.22
2023-01-09T05:37:59.628Z,6.55
2023-01-09T05:40:32.243Z,6.47
2023-01-09T05:43:07.060Z,7.25
2023-01-09T05:45:36.276Z,7.05
2023-01-09T05:48:05.238Z,7.18
2023-01-09T05:50:33.822Z,5.97
2023-01-09T05:53:02.517Z,6.63
2023-01-09T05:55:30.819Z,7.45
2023-01-09T05:58:00.043Z,7.22
2023-01-09T06:00:28.590Z,8.13
2023-01-09T06:02:57.432Z,7.13
2023-01-09T06:05:26.140Z,7.63
2023-01-09T06:07:54.559Z,6.03
2023-01-09T06:10:23.106Z,7.72
2023-01-09T06:12:55.054Z,7.47
2023-01-09T06:15:23.469Z,6.40
2023-01-09T06:17:52.072Z,6.60
2023-01-09T06:20:21.031Z,7.05
2023-01-09T06:22:52.280Z,6.97
2023-01-09T06:25:20.879Z,7.68
2023-01-09T06:27:50.639Z,7.43
2023-01-09T06:30:20.430Z,5.88
2023-01-09T06:32:50.417Z,6.18
2023-01-09T06:35:21.416Z,6.82
2023-01-09T06:37:50.347Z,7.18
2023-01-09T06:40:20.353Z,6.50
2023-01-09T06:42:50.519Z,7.35
2023-01-09T06:45:19.440Z,7.03
2023-01-09T06:47:48.676Z,6.75
2023-01-09T06:50:17.788Z,7.30
2023-01-09T06:52:46.323Z,7.10
2023-01-09T06:55:14.978Z,6.97
2023-01-09T06:57:44.315Z,6.85
2023-01-09T07:00:14.672Z,6.15
2023-01-09T07:02:43.205Z,6.40
2023-01-09T07:05:12.370Z,7.32
2023-01-09T07:07:41.654Z,6.47
2023-01-09T07:10:11.650Z,6.70
2023-01-09T07:12:41.833Z,6.28
2023-01-09T07:15:13.830Z,7.15
2023-01-09T07:17:42.136Z,7.05
2023-01-09T07:20:12.420Z,6.28
2023-01-09T07:22:40.739Z,6.07
2023-01-09T07:25:09.776Z,6.47
2023-01-09T07:27:38.419Z,6.65
2023-01-09T07:30:10.737Z,7.82
2023-01-09T07:32:41.463Z,6.82
2023-01-09T07:35:11.193Z,7.63
2023-01-09T07:37:40.448Z,7.25
2023-01-09T07:40:10.325Z,7.57
2023-01-09T07:42:38.972Z,7.13
2023-01-09T07:45:09.484Z,6.95
2023-01-09T07:47:39.888Z,7.13
2023-01-09T07:50:13.480Z,7.35
2023-01-09T07:52:44.529Z,7.13
2023-01-09T07:55:15.014Z,7.53
2023-01-09T07:57:49.997Z,6.65
2023-01-09T08:00:21.368Z,6.35
2023-01-09T08:02:54.451Z,6.32
2023-01-09T08:05:22.848Z,7.10
2023-01-09T08:07:52.487Z,5.57
2023-01-09T08:10:21.311Z,7.25
2023-01-09T08:12:50.157Z,7.32
2023-01-09T08:15:20.080Z,5.07
2023-01-09T08:17:49.035Z,7.57
2023-01-09T08:20:21.253Z,7.03
2023-01-09T08:22:51.360Z,6.85
2023-01-09T08:25:21.462Z,7.18
2023-01-09T08:27:49.978Z,7.60
2023-01-09T08:30:20.419Z,8.00
2023-01-09T08:32:54.116Z,7.80
2023-01-09T08:35:23.019Z,6.85
2023-01-09T08:37:51.394Z,7.93
2023-01-09T08:40:20.447Z,7.53
2023-01-09T08:43:08.026Z,7.53
2023-01-09T08:45:55.994Z,7.43
2023-01-09T08:48:25.061Z,8.15
2023-01-09T08:50:54.548Z,7.35
2023-01-09T08:53:22.776Z,7.65
2023-01-09T08:55:51.773Z,6.63
2023-01-09T08:58:20.735Z,6.95
2023-01-09T09:00:49.177Z,7.75
2023-01-09T09:03:18.022Z,7.28
2023-01-09T09:05:46.974Z,6.95
2023-01-09T09:08:16.761Z,7.38
2023-01-09T09:10:45.775Z,6.85
2023-01-09T09:13:14.328Z,5.90
2023-01-09T09:15:42.698Z,7.85
2023-01-09T09:18:11.510Z,7.93
2023-01-09T09:20:40.236Z,7.40
2023-01-09T09:23:09.015Z,7.22
2023-01-09T09:25:38.914Z,7.18
2023-01-09T09:28:08.447Z,7.25
2023-01-09T09:30:39.603Z,6.72
2023-01-09T09:33:08.440Z,6.35
2023-01-09T09:35:37.606Z,7.22
2023-01-09T09:38:06.372Z,6.57
2023-01-09T09:41:01.600Z,7.13
2023-01-09T09:44:24.039Z,7.13
2023-01-09T09:47:04.657Z,7.25
2023-01-09T09:50:01.066Z,7.93
2023-01-09T09:52:46.436Z,9.07
2023-01-09T09:55:42.629Z,8.02
2023-01-09T09:58:29.077Z,7.65
2023-01-09T10:01:01.483Z,8.30
2023-01-09T10:03:49.366Z,7.90
2023-01-09T10:06:34.867Z,7.53
2023-01-09T10:09:33.121Z,9.10
2023-01-09T10:12:52.827Z,7.55
2023-01-09T10:15:42.961Z,7.53
2023-01-09T10:18:58.265Z,6.50
2023-01-09T10:21:46.902Z,6.28
2023-01-09T10:24:21.362Z,6.28
2023-01-09T10:26:54.608Z,6.45
2023-01-09T10:30:26.920Z,6.65
2023-01-09T10:33:15.676Z,6.65
2023-01-09T10:36:02.107Z,6.93
2023-01-09T10:38:38.375Z,6.97
2023-01-09T10:41:21.758Z,7.20
2023-01-09T10:44:15.547Z,5.70
2023-01-09T10:47:09.619Z,6.25
2023-01-09T10:49:40.047Z,5.55
2023-01-09T10:52:20.697Z,6.03
2023-01-09T10:55:32.713Z,6.45
2023-01-09T10:58:18.187Z,7.30
2023-01-09T11:00:49.437Z,6.32
2023-01-09T11:03:24.305Z,6.85
2023-01-09T11:05:56.950Z,6.68
2023-01-09T11:08:53.971Z,7.05
2023-01-09T11:11:38.805Z,7.15
2023-01-09T11:14:27.980Z,6.82
2023-01-09T11:17:03.839Z,7.03
2023-01-09T11:19:35.892Z,7.50
2023-01-09T11:22:17.611Z,7.53
2023-01-09T11:24:46.835Z,8.45
2023-01-09T11:27:14.621Z,7.10
2023-01-09T11:29:43.705Z,7.18
2023-01-09T11:32:24.532Z,9.13
2023-01-09T11:34:52.632Z,7.47
2023-01-09T11:37:29.958Z,8.73
2023-01-09T11:40:00.988Z,9.43
2023-01-09T11:42:49.036Z,9.90
2023-01-09T11:45:19.271Z,8.55
2023-01-09T11:47:48.010Z,6.43
2023-01-09T11:50:27.220Z,7.38
2023-01-09T11:53:17.217Z,7.65
2023-01-09T11:55:50.248Z,7.45
2023-01-09T11:58:23.003Z,7.10
2023-01-09T12:01:24.948Z,7.13
2023-01-09T12:04:38.399Z,6.70
2023-01-09T12:08:06.232Z,7.15
2023-01-09T12:11:11.880Z,6.75
2023-01-09T12:14:11.739Z,6.57
2023-01-09T12:17:02.711Z,6.97
2023-01-09T12:20:10.851Z,7.18
2023-01-09T12:23:10.570Z,7.25
2023-01-09T12:26:12.385Z,7.05
2023-01-09T12:29:26.005Z,7.20
2023-01-09T12:32:36.176Z,7.65
2023-01-09T12:35:55.072Z,7.05
2023-01-09T12:38:51.641Z,7.38
2023-01-09T12:41:47.288Z,6.65
2023-01-09T12:44:43.888Z,6.28
2023-01-09T12:47:47.448Z,6.05
2023-01-09T12:50:27.757Z,7.30
2023-01-09T12:53:26.453Z,7.25
2023-01-09T12:56:36.413Z,6.60
2023-01-09T12:59:32.751Z,7.35
2023-01-09T13:02:13.643Z,5.97
2023-01-09T13:04:58.132Z,6.38
2023-01-09T13:08:15.286Z,7.18
2023-01-09T13:10:49.522Z,7.50
2023-01-09T13:13:46.300Z,4.80
2023-01-09T13:16:29.244Z,7.28
2023-01-09T13:19:11.596Z,6.88
2023-01-09T13:21:41.669Z,7.70
2023-01-09T13:24:39.116Z,8.07
2023-01-09T13:27:19.866Z,8.15
2023-01-09T13:30:17.180Z,7.75
2023-01-09T13:33:29.013Z,7.88
2023-01-09T13:36:00.368Z,7.32
2023-01-09T13:38:32.003Z,7.57
2023-01-09T13:41:32.858Z,7.25
2023-01-09T13:44:26.454Z,6.53
2023-01-09T13:46:59.212Z,7.13
2023-01-09T13:49:59.810Z,5.93
2023-01-09T13:52:42.728Z,5.65
2023-01-09T13:55:17.213Z,6.90
2023-01-09T13:58:14.910Z,7.10
2023-01-09T14:00:43.816Z,5.25
2023-01-09T14:03:45.209Z,6.55
2023-01-09T14:06:16.973Z,7.10
2023-01-09T14:08:48.012Z,7.55
2023-01-09T14:11:23.347Z,5.63
2023-01-09T14:14:03.158Z,6.68
2023-01-09T14:16:32.682Z,6.55
2023-01-09T14:19:19.707Z,6.88
2023-01-09T14:21:57.009Z,6.55
2023-01-09T14:24:42.818Z,6.43
2023-01-09T14:27:54.815Z,6.45
2023-01-09T14:31:02.293Z,7.40
2023-01-09T14:33:32.981Z,6.68
2023-01-09T14:36:11.436Z,7.07
2023-01-09T14:39:04.129Z,6.70
2023-01-09T14:42:06.641Z,7.18
2023-01-09T14:44:59.965Z,6.88
2023-01-09T14:47:42.016Z,8.05
2023-01-09T14:50:48.530Z,8.40
2023-01-09T14:53:31.617Z,7.28
2023-01-09T14:56:24.102Z,7.55
2023-01-09T14:59:14.812Z,7.30
2023-01-09T15:01:49.672Z,6.57
2023-01-09T15:04:39.161Z,6.47
2023-01-09T15:07:08.390Z,5.85
2023-01-09T15:10:03.927Z,6.57
2023-01-09T15:12:34.281Z,7.20
2023-01-09T15:15:04.950Z,6.35
2023-01-09T15:17:36.927Z,6.55
2023-01-09T15:20:08.594Z,6.57
2023-01-09T15:22:38.522Z,7.05
2023-01-09T15:25:38.993Z,6.07
2023-01-09T15:28:32.871Z,6.63
2023-01-09T15:31:11.900Z,5.90
2023-01-09T15:33:42.627Z,6.20
2023-01-09T15:36:22.831Z,5.63
2023-01-09T15:38:52.933Z,5.55
2023-01-09T15:41:49.152Z,5.60
2023-01-09T15:44:29.610Z,5.63
2023-01-09T15:46:59.966Z,5.90
2023-01-09T15:49:28.627Z,5.78
2023-01-09T15:51:57.383Z,6.10
2023-01-09T15:54:32.057Z,6.95
2023-01-09T15:57:26.120Z,5.85
2023-01-09T16:00:23.186Z,6.40
2023-01-09T16:03:12.474Z,5.65
2023-01-09T16:06:08.981Z,5.80
2023-01-09T16:08:54.236Z,6.70
2023-01-09T16:11:50.203Z,6.72
2023-01-09T16:14:38.803Z,6.45
2023-01-09T16:17:16.039Z,7.07
2023-01-09T16:19:55.771Z,7.13
2023-01-09T16:22:25.625Z,7.10
2023-01-09T16:24:58.356Z,6.47
2023-01-09T16:27:34.360Z,5.50
2023-01-09T16:30:05.972Z,6.78
2023-01-09T16:32:48.002Z,6.97
2023-01-09T16:35:20.264Z,6.97
2023-01-09T16:37:48.941Z,6.38
2023-01-09T16:40:17.251Z,7.00
2023-01-09T16:43:01.750Z,7.13
2023-01-09T16:45:42.098Z,7.55
2023-01-09T16:48:22.022Z,6.53
2023-01-09T16:50:50.752Z,7.00
2023-01-09T16:53:24.480Z,7.43
2023-01-09T16:55:54.496Z,7.30
2023-01-09T16:58:30.960Z,8.35
2023-01-09T17:01:00.051Z,7.80
2023-01-09T17:03:28.433Z,7.88
2023-01-09T17:06:01.418Z,7.72
2023-01-09T17:08:33.195Z,7.55
2023-01-09T17:13:30.440Z,7.03
2023-01-09T17:16:00.140Z,7.38
2023-01-09T17:18:30.471Z,7.07
2023-01-09T17:20:59.511Z,7.82
2023-01-09T17:23:29.026Z,8.23
2023-01-09T17:26:19.537Z,7.45
2023-01-09T17:28:51.958Z,7.65
2023-01-09T17:31:20.646Z,7.55
2023-01-09T17:33:49.853Z,7.80
2023-01-09T17:36:35.076Z,7.70
2023-01-09T17:39:03.939Z,7.90
2023-01-09T17:41:33.849Z,8.35
2023-01-09T17:44:02.451Z,7.63
2023-01-09T17:46:36.801Z,7.70
2023-01-09T17:49:08.013Z,6.93
2023-01-09T17:54:06.269Z,7.53
2023-01-09T17:56:39.721Z,8.55
2023-01-09T17:59:10.202Z,7.78
2023-01-09T18:01:38.444Z,8.55
2023-01-09T18:04:07.110Z,8.30
2023-01-09T18:06:39.674Z,8.32
2023-01-09T18:09:13.628Z,7.95
2023-01-09T18:11:45.090Z,7.43
2023-01-09T18:16:44.750Z,9.02
2023-01-09T18:19:13.611Z,7.55
2023-01-09T18:21:42.573Z,7.53
2023-01-09T18:24:11.345Z,8.38
2023-01-09T18:26:39.979Z,7.68
2023-01-09T18:29:09.942Z,8.25
2023-01-09T18:31:38.761Z,8.52
2023-01-09T18:34:07.905Z,8.05
2023-01-09T18:36:36.841Z,8.07
2023-01-09T18:39:07.393Z,7.82
2023-01-09T18:41:36.181Z,6.82
2023-01-09T18:44:06.339Z,7.60
2023-01-09T18:46:35.207Z,7.30
2023-01-09T18:49:05.696Z,7.63
2023-01-09T18:51:39.114Z,7.75
2023-01-09T18:54:09.078Z,7.28
2023-01-09T18:56:38.087Z,7.88
2023-01-09T18:59:07.128Z,8.02
2023-01-09T19:01:36.400Z,9.00
2023-01-09T19:04:05.413Z,7.68
2023-01-09T19:06:34.078Z,8.13
2023-01-09T19:09:02.764Z,9.18
2023-01-09T19:11:30.995Z,9.02
2023-01-09T19:14:00.511Z,8.60
2023-01-09T19:16:28.996Z,7.57
2023-01-09T19:18:58.617Z,8.90
2023-01-09T19:21:27.119Z,7.60
2023-01-09T19:23:55.603Z,7.95
2023-01-09T19:26:26.947Z,7.18
2023-01-09T19:28:58.129Z,7.63
2023-01-09T19:31:29.349Z,7.82
2023-01-09T19:33:59.020Z,7.95
2023-01-09T19:36:29.105Z,7.75
2023-01-09T19:39:02.577Z,8.07
2023-01-09T19:41:31.125Z,7.28
2023-01-09T19:44:03.368Z,7.15
2023-01-09T19:46:33.948Z,7.55
2023-01-09T19:49:05.164Z,8.88
2023-01-09T19:51:35.297Z,7.97
2023-01-09T19:56:41.082Z,7.53
2023-01-09T19:59:12.126Z,7.85
2023-01-09T20:01:45.541Z,8.10
2023-01-09T20:04:15.448Z,8.02
2023-01-09T20:06:48.288Z,8.07
2023-01-09T20:09:27.681Z,7.90
2023-01-09T20:11:56.717Z,8.18
2023-01-09T20:14:25.347Z,8.55
2023-01-09T20:16:55.772Z,7.57
2023-01-09T20:19:24.515Z,8.52
2023-01-09T20:21:53.963Z,8.00
2023-01-09T20:24:22.046Z,8.02
2023-01-09T20:26:51.388Z,8.00
2023-01-09T20:29:20.789Z,7.80
2023-01-09T20:31:50.755Z,7.53
2023-01-09T20:34:19.747Z,8.95
2023-01-09T20:36:48.548Z,7.45
2023-01-09T20:39:17.676Z,8.25
2023-01-09T20:41:46.627Z,7.90
2023-01-09T20:44:16.404Z,10.02
2023-01-09T20:46:49.959Z,7.95
2023-01-09T20:49:18.929Z,9.25
2023-01-09T20:51:52.958Z,8.02
2023-01-09T20:54:22.954Z,8.70
2023-01-09T20:56:51.838Z,8.07
2023-01-09T20:59:22.468Z,9.15
2023-01-09T21:01:51.893Z,7.97
2023-01-09T21:04:20.735Z,8.73
2023-01-09T21:06:50.358Z,8.48
2023-01-09T21:09:19.383Z,9.13
2023-01-09T21:11:47.905Z,8.90
2023-01-09T21:14:16.745Z,8.07
2023-01-09T21:16:53.853Z,9.48
2023-01-09T21:19:23.793Z,8.93
2023-01-09T21:21:53.439Z,9.27
2023-01-09T21:24:22.079Z,9.32
2023-01-09T21:26:51.142Z,8.88
2023-01-09T21:29:19.782Z,8.90
2023-01-09T21:31:48.182Z,9.18
2023-01-09T21:34:20.336Z,8.10
2023-01-09T21:36:49.075Z,8.88
2023-01-09T21:39:20.967Z,9.07
2023-01-09T21:42:08.391Z,9.00
2023-01-09T21:44:55.799Z,8.82
2023-01-09T21:47:24.492Z,10.18
2023-01-09T21:49:52.861Z,9.50
2023-01-09T21:52:21.277Z,9.02
2023-01-09T21:54:50.642Z,9.50
2023-01-09T21:57:20.586Z,9.68
2023-01-09T21:59:49.314Z,10.10
2023-01-09T22:02:17.897Z,9.35
2023-01-09T22:04:49.547Z,8.93
2023-01-09T22:09:46.111Z,8.98
2023-01-09T22:12:14.215Z,8.02
2023-01-09T22:14:42.900Z,8.48
2023-01-09T22:17:11.008Z,8.90
2023-01-09T22:19:39.431Z,8.63
2023-01-09T22:22:09.003Z,8.15
2023-01-09T22:24:37.381Z,9.20
2023-01-09T22:27:05.609Z,9.07
2023-01-09T22:29:34.320Z,9.48
2023-01-09T22:32:02.351Z,9.15
2023-01-09T22:34:31.199Z,9.95
2023-01-09T22:37:00.519Z,9.20
2023-01-09T22:39:28.985Z,8.80
2023-01-09T22:41:59.243Z,8.80
2023-01-09T22:44:27.695Z,10.30
2023-01-09T22:46:57.473Z,9.18
2023-01-09T22:49:29.951Z,9.55
2023-01-09T22:51:59.407Z,9.30
2023-01-09T22:54:28.050Z,9.75
2023-01-09T22:56:56.853Z,10.60
2023-01-09T22:59:27.561Z,10.38
2023-01-09T23:01:57.911Z,9.73
2023-01-09T23:04:26.866Z,11.05
2023-01-09T23:06:55.588Z,9.93
2023-01-09T23:09:25.733Z,11.35
2023-01-09T23:12:03.864Z,10.25
2023-01-09T23:14:36.060Z,9.75
2023-01-09T23:17:10.013Z,11.00
2023-01-09T23:19:38.596Z,10.48
2023-01-09T23:22:07.310Z,11.23
2023-01-09T23:24:35.514Z,10.95
2023-01-09T23:27:04.650Z,10.40
2023-01-09T23:29:33.422Z,10.70
2023-01-09T23:32:07.903Z,10.15
2023-01-09T23:34:36.576Z,9.15
2023-01-09T23:37:09.169Z,9.65
2023-01-09T23:39:37.477Z,9.45
2023-01-09T23:42:24.992Z,10.68
2023-01-09T23:44:53.755Z,9.70
2023-01-09T23:47:22.447Z,10.27
2023-01-09T23:49:50.615Z,10.40
2023-01-09T23:52:19.377Z,10.27
2023-01-09T23:54:47.439Z,10.10
2023-01-09T23:57:15.789Z,9.43
2023-01-09T23:59:44.601Z,9.80
